Aérodrome :
LOGIN :

S'inscrire | Disclaimer

   EN    FR    IT 

 










Légende :    VFR   VFR Marginal   IFR   IFR Intensif   IFR Très Intensif
Visi : 
Plafond : 
>= 8 km
>= 3000ft
5 à 8 km
1000 à 3000 ft
1500m à 5 km
500 à 1000 ft
800 à 1500m
200 à 500 ft
< 800m
< 200 ft
Symboles :   Orages  Brouillard  Fortes neiges  Fortes précipitations  Vent > 20 kt
SIGMETs :   Divers  Orages  Givrage  Turbulence  Onde Orograph.  Cendres Volcan.






- Altitude de l'aérodrome : 32 ft
- Code IATA : LKZ


EGUL - RAF Lakenheath

DERNIER METAR :
  • 220056Z AUTO 00000KT M R06/P1500 DZ CLR M02/M03 A3030 RMK AO2 SLP264 P0000 T10171033 $

METARs EXPIRÉS :
  • 212356Z AUTO 00000KT M R06/P1500 DZ CLR M01/M03 A3029 RMK AO2 SLP261 P0000 60000 T10091030 10091 21010 401301010 52007 $

TAF AMD TAF EGUL
Valide du 21 à 21h jusqu'au 23 à 02h UTC


212100Z 2121/2302 05009KT 9999 SCT060 QNH3025INS
TEMPO 2202/2206 8000 BR
BECMG 2301/2302 09009KT 8000 BR SCT030 QNH3041INS TX13/2215Z TN00/2204Z LAST NO AMDS AFT 2121 NEXT 2204



MET'MAP, la Météo Aéronautique d'un coup d'oeil ! - Copyright ORBIFLY Décembre 2007 - Disclaimer

ORBIFLY MET'MAP TEAM :

Programmation & Développement : Alexandra Zaïnal
Sur une idée originale de : Baudouin d'Aumeries
Assistance à la programmation : Marc-Olivier Méhu
Soutien technique & logistique : Manuel Goepfert

Contact : metmap@orbifly.com




SOURCES & CREDITS :

   NOAA